sensor_id;sensor_type;location;lat;lon;timestamp;pressure;altitude;pressure_sealevel;temperature;humidity
66176;BME280;52977;44.816;20.538;2023-05-25T00:00:54;99699.53;;;21.14;81.51
66176;BME280;52977;44.816;20.538;2023-05-25T00:03:20;99677.25;;;20.71;82.95
66176;BME280;52977;44.816;20.538;2023-05-25T00:05:45;99700.03;;;20.36;88.08
66176;BME280;52977;44.816;20.538;2023-05-25T00:08:13;99702.44;;;20.37;89.78
66176;BME280;52977;44.816;20.538;2023-05-25T00:10:38;99704.44;;;20.44;90.10
66176;BME280;52977;44.816;20.538;2023-05-25T00:13:04;99712.03;;;20.58;90.22
66176;BME280;52977;44.816;20.538;2023-05-25T00:15:29;99648.13;;;20.18;90.10
66176;BME280;52977;44.816;20.538;2023-05-25T00:17:55;99639.81;;;20.18;90.02
66176;BME280;52977;44.816;20.538;2023-05-25T00:20:20;99713.31;;;20.75;89.37
66176;BME280;52977;44.816;20.538;2023-05-25T00:22:46;99714.09;;;20.79;89.46
66176;BME280;52977;44.816;20.538;2023-05-25T00:25:12;99712.56;;;20.85;89.24
66176;BME280;52977;44.816;20.538;2023-05-25T00:27:37;99681.97;;;20.67;89.01
66176;BME280;52977;44.816;20.538;2023-05-25T00:30:03;99692.25;;;20.66;89.81
66176;BME280;52977;44.816;20.538;2023-05-25T00:32:29;99702.63;;;20.77;89.72
66176;BME280;52977;44.816;20.538;2023-05-25T00:34:54;99699.03;;;20.73;89.75
66176;BME280;52977;44.816;20.538;2023-05-25T00:37:20;99641.09;;;20.39;89.61
66176;BME280;52977;44.816;20.538;2023-05-25T00:39:46;99708.56;;;20.79;89.60
66176;BME280;52977;44.816;20.538;2023-05-25T00:42:12;99703.00;;;20.79;89.25
66176;BME280;52977;44.816;20.538;2023-05-25T00:44:37;99720.47;;;20.79;89.00
66176;BME280;52977;44.816;20.538;2023-05-25T00:47:03;99661.72;;;20.48;88.20
66176;BME280;52977;44.816;20.538;2023-05-25T00:49:34;99702.59;;;20.73;88.16
66176;BME280;52977;44.816;20.538;2023-05-25T00:52:00;99714.50;;;20.77;87.44
66176;BME280;52977;44.816;20.538;2023-05-25T00:54:26;99699.38;;;20.64;87.67
66176;BME280;52977;44.816;20.538;2023-05-25T00:56:58;99719.28;;;20.77;87.54
66176;BME280;52977;44.816;20.538;2023-05-25T00:59:38;99706.09;;;20.66;87.40
66176;BME280;52977;44.816;20.538;2023-05-25T01:02:08;99723.63;;;20.78;87.01
66176;BME280;52977;44.816;20.538;2023-05-25T01:04:37;99666.41;;;20.41;86.48
66176;BME280;52977;44.816;20.538;2023-05-25T01:07:07;99722.03;;;20.77;86.86
66176;BME280;52977;44.816;20.538;2023-05-25T01:09:37;99730.75;;;20.75;86.80
66176;BME280;52977;44.816;20.538;2023-05-25T01:12:06;99694.16;;;20.44;86.88
66176;BME280;52977;44.816;20.538;2023-05-25T01:14:33;99721.59;;;20.68;87.60
66176;BME280;52977;44.816;20.538;2023-05-25T01:16:59;99740.63;;;20.69;87.43
66176;BME280;52977;44.816;20.538;2023-05-25T01:19:25;99687.38;;;20.35;87.25
66176;BME280;52977;44.816;20.538;2023-05-25T01:22:02;99718.78;;;20.60;87.69
66176;BME280;52977;44.816;20.538;2023-05-25T01:24:33;99714.00;;;20.61;87.91
66176;BME280;52977;44.816;20.538;2023-05-25T01:27:14;99705.28;;;20.55;86.68
66176;BME280;52977;44.816;20.538;2023-05-25T01:29:43;99721.97;;;20.62;86.32
66176;BME280;52977;44.816;20.538;2023-05-25T01:32:11;99678.69;;;20.40;86.36
66176;BME280;52977;44.816;20.538;2023-05-25T01:34:38;99728.78;;;20.72;86.12
66176;BME280;52977;44.816;20.538;2023-05-25T01:37:06;99720.44;;;20.72;86.82
66176;BME280;52977;44.816;20.538;2023-05-25T01:39:34;99715.19;;;20.56;87.17
66176;BME280;52977;44.816;20.538;2023-05-25T01:42:01;99676.59;;;20.15;88.32
66176;BME280;52977;44.816;20.538;2023-05-25T01:44:27;99713.09;;;20.28;88.99
66176;BME280;52977;44.816;20.538;2023-05-25T01:47:31;99718.59;;;20.21;90.57
66176;BME280;52977;44.816;20.538;2023-05-25T01:50:02;99729.97;;;20.01;93.52
66176;BME280;52977;44.816;20.538;2023-05-25T01:52:36;99717.25;;;19.93;93.87
66176;BME280;52977;44.816;20.538;2023-05-25T01:55:14;99665.16;;;19.64;93.76
66176;BME280;52977;44.816;20.538;2023-05-25T01:57:42;99747.78;;;20.07;95.46
66176;BME280;52977;44.816;20.538;2023-05-25T02:00:11;99708.88;;;19.86;95.63
66176;BME280;52977;44.816;20.538;2023-05-25T02:02:43;99739.13;;;20.12;96.73
66176;BME280;52977;44.816;20.538;2023-05-25T02:05:09;99684.94;;;19.63;97.73
66176;BME280;52977;44.816;20.538;2023-05-25T02:07:35;99737.75;;;19.88;97.72
66176;BME280;52977;44.816;20.538;2023-05-25T02:10:02;99752.03;;;19.90;98.95
66176;BME280;52977;44.816;20.538;2023-05-25T02:12:27;99751.16;;;19.83;99.84
66176;BME280;52977;44.816;20.538;2023-05-25T02:14:53;99745.94;;;19.74;100.00
66176;BME280;52977;44.816;20.538;2023-05-25T02:17:19;99742.41;;;19.77;100.00
66176;BME280;52977;44.816;20.538;2023-05-25T02:19:45;99748.16;;;19.57;100.00
66176;BME280;52977;44.816;20.538;2023-05-25T02:22:11;99751.19;;;19.41;100.00
66176;BME280;52977;44.816;20.538;2023-05-25T02:24:37;99758.75;;;19.44;100.00
66176;BME280;52977;44.816;20.538;2023-05-25T02:27:04;99754.88;;;19.56;100.00
66176;BME280;52977;44.816;20.538;2023-05-25T02:29:30;99738.59;;;19.47;100.00
66176;BME280;52977;44.816;20.538;2023-05-25T02:31:56;99764.81;;;19.61;100.00
66176;BME280;52977;44.816;20.538;2023-05-25T02:34:21;99743.94;;;19.71;100.00
66176;BME280;52977;44.816;20.538;2023-05-25T02:36:47;99758.78;;;19.93;100.00
66176;BME280;52977;44.816;20.538;2023-05-25T02:39:12;99766.44;;;19.66;100.00
66176;BME280;52977;44.816;20.538;2023-05-25T02:41:38;99770.31;;;19.57;100.00
66176;BME280;52977;44.816;20.538;2023-05-25T02:44:05;99767.09;;;19.52;100.00
66176;BME280;52977;44.816;20.538;2023-05-25T02:46:31;99769.56;;;19.19;100.00
66176;BME280;52977;44.816;20.538;2023-05-25T02:48:58;99753.28;;;19.10;100.00
66176;BME280;52977;44.816;20.538;2023-05-25T02:51:26;99676.03;;;18.60;100.00
66176;BME280;52977;44.816;20.538;2023-05-25T02:53:52;99754.00;;;19.07;100.00
66176;BME280;52977;44.816;20.538;2023-05-25T02:56:18;99727.56;;;18.76;100.00
66176;BME280;52977;44.816;20.538;2023-05-25T02:58:43;99744.16;;;18.76;100.00
66176;BME280;52977;44.816;20.538;2023-05-25T03:01:11;99785.06;;;18.93;100.00
66176;BME280;52977;44.816;20.538;2023-05-25T03:03:46;99768.66;;;19.11;100.00
66176;BME280;52977;44.816;20.538;2023-05-25T03:06:17;99687.84;;;18.57;100.00
66176;BME280;52977;44.816;20.538;2023-05-25T03:08:44;99750.25;;;19.26;100.00
66176;BME280;52977;44.816;20.538;2023-05-25T03:11:10;99742.84;;;19.34;100.00
66176;BME280;52977;44.816;20.538;2023-05-25T03:13:37;99782.38;;;19.35;100.00
66176;BME280;52977;44.816;20.538;2023-05-25T03:16:03;99786.47;;;19.52;100.00
66176;BME280;52977;44.816;20.538;2023-05-25T03:18:29;99788.81;;;19.46;100.00
66176;BME280;52977;44.816;20.538;2023-05-25T03:20:56;99763.84;;;19.01;100.00
66176;BME280;52977;44.816;20.538;2023-05-25T03:23:23;99783.16;;;19.35;100.00
66176;BME280;52977;44.816;20.538;2023-05-25T03:25:54;99778.06;;;19.41;100.00
66176;BME280;52977;44.816;20.538;2023-05-25T03:28:21;99750.97;;;19.16;100.00
66176;BME280;52977;44.816;20.538;2023-05-25T03:30:47;99756.69;;;19.00;100.00
66176;BME280;52977;44.816;20.538;2023-05-25T03:33:14;99785.13;;;19.35;100.00
66176;BME280;52977;44.816;20.538;2023-05-25T03:35:44;99795.69;;;19.25;100.00
66176;BME280;52977;44.816;20.538;2023-05-25T03:38:11;99798.13;;;19.30;100.00
66176;BME280;52977;44.816;20.538;2023-05-25T03:40:37;99793.28;;;19.20;100.00
66176;BME280;52977;44.816;20.538;2023-05-25T03:43:04;99796.34;;;19.11;100.00
66176;BME280;52977;44.816;20.538;2023-05-25T03:45:30;99796.91;;;19.28;100.00
66176;BME280;52977;44.816;20.538;2023-05-25T03:47:56;99739.47;;;18.84;100.00
66176;BME280;52977;44.816;20.538;2023-05-25T03:50:22;99789.75;;;19.23;100.00
66176;BME280;52977;44.816;20.538;2023-05-25T03:52:49;99803.97;;;19.22;100.00
66176;BME280;52977;44.816;20.538;2023-05-25T03:55:15;99805.84;;;19.14;100.00
66176;BME280;52977;44.816;20.538;2023-05-25T03:57:41;99761.88;;;18.71;100.00
66176;BME280;52977;44.816;20.538;2023-05-25T04:00:08;99800.16;;;19.00;100.00
66176;BME280;52977;44.816;20.538;2023-05-25T04:02:38;99811.47;;;19.21;100.00
66176;BME280;52977;44.816;20.538;2023-05-25T04:05:04;99811.47;;;19.21;100.00
66176;BME280;52977;44.816;20.538;2023-05-25T04:07:31;99782.66;;;18.88;100.00
66176;BME280;52977;44.816;20.538;2023-05-25T04:09:58;99808.16;;;19.08;100.00
66176;BME280;52977;44.816;20.538;2023-05-25T04:12:25;99830.13;;;19.28;100.00
66176;BME280;52977;44.816;20.538;2023-05-25T04:14:52;99812.28;;;19.22;100.00
66176;BME280;52977;44.816;20.538;2023-05-25T04:17:18;99817.84;;;19.25;100.00
66176;BME280;52977;44.816;20.538;2023-05-25T04:19:47;99778.38;;;18.94;100.00
66176;BME280;52977;44.816;20.538;2023-05-25T04:22:14;99811.84;;;19.20;100.00
66176;BME280;52977;44.816;20.538;2023-05-25T04:24:41;99802.69;;;19.12;100.00
66176;BME280;52977;44.816;20.538;2023-05-25T04:27:07;99811.75;;;18.82;100.00
66176;BME280;52977;44.816;20.538;2023-05-25T04:29:34;99721.66;;;18.43;100.00
66176;BME280;52977;44.816;20.538;2023-05-25T04:32:19;99833.72;;;19.28;100.00
66176;BME280;52977;44.816;20.538;2023-05-25T04:34:51;99802.16;;;18.99;100.00
66176;BME280;52977;44.816;20.538;2023-05-25T04:37:24;99839.13;;;19.18;100.00
66176;BME280;52977;44.816;20.538;2023-05-25T04:39:56;99849.56;;;19.32;100.00
66176;BME280;52977;44.816;20.538;2023-05-25T04:42:22;99801.72;;;18.97;100.00
66176;BME280;52977;44.816;20.538;2023-05-25T04:44:50;99845.31;;;19.41;100.00
66176;BME280;52977;44.816;20.538;2023-05-25T04:47:23;99821.22;;;19.08;99.99
66176;BME280;52977;44.816;20.538;2023-05-25T04:49:50;99805.31;;;19.01;100.00
66176;BME280;52977;44.816;20.538;2023-05-25T04:52:15;99863.13;;;19.44;99.04
66176;BME280;52977;44.816;20.538;2023-05-25T04:54:43;99863.53;;;19.46;98.72
66176;BME280;52977;44.816;20.538;2023-05-25T04:57:08;99838.78;;;19.23;98.66
66176;BME280;52977;44.816;20.538;2023-05-25T04:59:34;99844.03;;;19.01;100.00
66176;BME280;52977;44.816;20.538;2023-05-25T05:02:00;99877.59;;;19.30;100.00
66176;BME280;52977;44.816;20.538;2023-05-25T05:04:26;99858.63;;;18.98;100.00
66176;BME280;52977;44.816;20.538;2023-05-25T05:06:52;99884.69;;;19.27;100.00
66176;BME280;52977;44.816;20.538;2023-05-25T05:09:21;99807.44;;;18.85;99.04
66176;BME280;52977;44.816;20.538;2023-05-25T05:11:48;99886.06;;;19.44;98.50
66176;BME280;52977;44.816;20.538;2023-05-25T05:14:13;99886.78;;;19.38;98.74
66176;BME280;52977;44.816;20.538;2023-05-25T05:16:41;99870.09;;;19.30;97.54
66176;BME280;52977;44.816;20.538;2023-05-25T05:19:07;99861.09;;;19.37;96.37
66176;BME280;52977;44.816;20.538;2023-05-25T05:21:33;99898.59;;;19.35;98.58
66176;BME280;52977;44.816;20.538;2023-05-25T05:24:02;99902.59;;;19.37;97.55
66176;BME280;52977;44.816;20.538;2023-05-25T05:26:27;99885.22;;;19.40;96.01
66176;BME280;52977;44.816;20.538;2023-05-25T05:28:54;99705.22;;;18.27;95.02
66176;BME280;52977;44.816;20.538;2023-05-25T05:31:21;99863.56;;;19.16;96.30
66176;BME280;52977;44.816;20.538;2023-05-25T05:33:47;99898.34;;;19.47;96.08
66176;BME280;52977;44.816;20.538;2023-05-25T05:36:14;99870.16;;;19.38;95.49
66176;BME280;52977;44.816;20.538;2023-05-25T05:38:40;99892.44;;;19.49;95.82
66176;BME280;52977;44.816;20.538;2023-05-25T05:41:06;99902.13;;;19.66;95.23
66176;BME280;52977;44.816;20.538;2023-05-25T05:43:41;99884.81;;;19.38;96.71
66176;BME280;52977;44.816;20.538;2023-05-25T05:46:08;99907.66;;;19.66;94.33
66176;BME280;52977;44.816;20.538;2023-05-25T05:48:35;99863.53;;;19.46;93.10
66176;BME280;52977;44.816;20.538;2023-05-25T05:51:05;99867.00;;;19.36;94.69
66176;BME280;52977;44.816;20.538;2023-05-25T05:53:31;99841.25;;;19.32;93.53
66176;BME280;52977;44.816;20.538;2023-05-25T05:56:01;99901.44;;;19.76;91.28
66176;BME280;52977;44.816;20.538;2023-05-25T05:58:28;99878.38;;;19.64;91.52
66176;BME280;52977;44.816;20.538;2023-05-25T06:00:55;99865.22;;;19.54;91.69
66176;BME280;52977;44.816;20.538;2023-05-25T06:03:22;99899.94;;;19.82;91.50
66176;BME280;52977;44.816;20.538;2023-05-25T06:05:51;99909.44;;;19.81;90.94
66176;BME280;52977;44.816;20.538;2023-05-25T06:08:18;99902.13;;;19.66;91.25
66176;BME280;52977;44.816;20.538;2023-05-25T06:10:44;99900.22;;;19.73;91.88
66176;BME280;52977;44.816;20.538;2023-05-25T06:13:09;99891.88;;;19.70;91.22
66176;BME280;52977;44.816;20.538;2023-05-25T06:15:35;99895.06;;;19.72;91.55
66176;BME280;52977;44.816;20.538;2023-05-25T06:18:06;99918.56;;;19.85;91.98
66176;BME280;52977;44.816;20.538;2023-05-25T06:20:32;99911.88;;;19.86;91.64
66176;BME280;52977;44.816;20.538;2023-05-25T06:22:59;99922.09;;;19.82;92.37
66176;BME280;52977;44.816;20.538;2023-05-25T06:25:26;99890.63;;;19.63;92.40
66176;BME280;52977;44.816;20.538;2023-05-25T06:27:54;99919.22;;;19.75;92.89
66176;BME280;52977;44.816;20.538;2023-05-25T06:30:20;99879.81;;;19.51;93.53
66176;BME280;52977;44.816;20.538;2023-05-25T06:32:47;99923.59;;;19.76;94.09
66176;BME280;52977;44.816;20.538;2023-05-25T06:35:13;99918.06;;;19.76;94.31
66176;BME280;52977;44.816;20.538;2023-05-25T06:37:48;99931.41;;;19.67;95.39
66176;BME280;52977;44.816;20.538;2023-05-25T06:40:16;99878.22;;;19.50;94.41
66176;BME280;52977;44.816;20.538;2023-05-25T06:42:44;99919.63;;;19.77;93.95
66176;BME280;52977;44.816;20.538;2023-05-25T06:45:37;99926.00;;;19.77;94.89
66176;BME280;52977;44.816;20.538;2023-05-25T06:48:03;99924.44;;;19.80;94.40
66176;BME280;52977;44.816;20.538;2023-05-25T06:50:29;99918.91;;;19.80;94.46
66176;BME280;52977;44.816;20.538;2023-05-25T06:52:55;99893.53;;;19.78;93.85
66176;BME280;52977;44.816;20.538;2023-05-25T06:55:20;99915.13;;;19.95;93.34
66176;BME280;52977;44.816;20.538;2023-05-25T06:57:46;99917.06;;;19.91;93.38
66176;BME280;52977;44.816;20.538;2023-05-25T07:00:12;99906.16;;;19.75;94.49
66176;BME280;52977;44.816;20.538;2023-05-25T07:02:38;99918.16;;;19.83;95.51
66176;BME280;52977;44.816;20.538;2023-05-25T07:05:04;99916.97;;;19.84;96.09
66176;BME280;52977;44.816;20.538;2023-05-25T07:07:31;99864.03;;;19.55;95.05
66176;BME280;52977;44.816;20.538;2023-05-25T07:09:57;99882.41;;;19.71;94.66
66176;BME280;52977;44.816;20.538;2023-05-25T07:12:22;99933.31;;;19.96;94.37
66176;BME280;52977;44.816;20.538;2023-05-25T07:14:48;99931.75;;;19.95;94.63
66176;BME280;52977;44.816;20.538;2023-05-25T07:17:14;99943.19;;;19.94;94.67
66176;BME280;52977;44.816;20.538;2023-05-25T07:19:40;99904.03;;;19.61;95.33
66176;BME280;52977;44.816;20.538;2023-05-25T07:22:08;99898.50;;;19.61;94.81
66176;BME280;52977;44.816;20.538;2023-05-25T07:24:35;99947.88;;;19.90;95.48
66176;BME280;52977;44.816;20.538;2023-05-25T07:27:01;99904.56;;;19.71;95.03
66176;BME280;52977;44.816;20.538;2023-05-25T07:29:28;99927.31;;;19.87;94.89
66176;BME280;52977;44.816;20.538;2023-05-25T07:31:53;99948.06;;;20.08;93.47
66176;BME280;52977;44.816;20.538;2023-05-25T07:34:19;99937.19;;;19.88;94.99
66176;BME280;52977;44.816;20.538;2023-05-25T07:36:45;99954.56;;;19.82;96.83
66176;BME280;52977;44.816;20.538;2023-05-25T07:39:10;99944.41;;;19.96;95.89
66176;BME280;52977;44.816;20.538;2023-05-25T07:41:37;99918.63;;;19.89;95.55
66176;BME280;52977;44.816;20.538;2023-05-25T07:44:03;99940.31;;;20.21;93.60
66176;BME280;52977;44.816;20.538;2023-05-25T07:46:28;99945.81;;;20.17;93.99
66176;BME280;52977;44.816;20.538;2023-05-25T07:48:55;99949.47;;;20.28;94.17
66176;BME280;52977;44.816;20.538;2023-05-25T07:51:22;99948.00;;;20.42;93.78
66176;BME280;52977;44.816;20.538;2023-05-25T07:53:50;99942.41;;;20.38;94.00
66176;BME280;52977;44.816;20.538;2023-05-25T07:56:17;99947.69;;;20.51;93.79
66176;BME280;52977;44.816;20.538;2023-05-25T07:58:43;99939.25;;;20.40;94.82
66176;BME280;52977;44.816;20.538;2023-05-25T08:01:08;99905.13;;;20.28;94.00
66176;BME280;52977;44.816;20.538;2023-05-25T08:03:34;99933.78;;;20.47;94.12
66176;BME280;52977;44.816;20.538;2023-05-25T08:06:01;99927.47;;;20.50;92.57
66176;BME280;52977;44.816;20.538;2023-05-25T08:08:27;99930.31;;;20.57;93.73
66176;BME280;52977;44.816;20.538;2023-05-25T08:10:53;99938.66;;;20.64;93.23
66176;BME280;52977;44.816;20.538;2023-05-25T08:13:19;99953.03;;;20.77;92.35
66176;BME280;52977;44.816;20.538;2023-05-25T08:15:47;99918.03;;;20.58;92.96
66176;BME280;52977;44.816;20.538;2023-05-25T08:18:14;99946.75;;;20.84;92.76
66176;BME280;52977;44.816;20.538;2023-05-25T08:20:41;99945.22;;;20.94;92.76
66176;BME280;52977;44.816;20.538;2023-05-25T08:23:07;99882.38;;;20.60;93.08
66176;BME280;52977;44.816;20.538;2023-05-25T08:25:34;99922.59;;;20.88;92.45
66176;BME280;52977;44.816;20.538;2023-05-25T08:28:00;99925.03;;;20.93;93.26
66176;BME280;52977;44.816;20.538;2023-05-25T08:30:26;99860.97;;;20.61;92.56
66176;BME280;52977;44.816;20.538;2023-05-25T08:32:52;99946.56;;;21.18;91.59
66176;BME280;52977;44.816;20.538;2023-05-25T08:35:18;99939.44;;;21.17;90.80
66176;BME280;52977;44.816;20.538;2023-05-25T08:37:44;99944.16;;;21.13;91.12
66176;BME280;52977;44.816;20.538;2023-05-25T08:40:15;99942.59;;;21.19;91.77
66176;BME280;52977;44.816;20.538;2023-05-25T08:42:43;99902.44;;;20.95;91.47
66176;BME280;52977;44.816;20.538;2023-05-25T08:45:09;99944.97;;;21.21;91.27
66176;BME280;52977;44.816;20.538;2023-05-25T08:47:42;99921.50;;;21.04;92.54
66176;BME280;52977;44.816;20.538;2023-05-25T08:50:09;99942.63;;;21.26;90.89
66176;BME280;52977;44.816;20.538;2023-05-25T08:52:38;99956.94;;;21.32;89.76
66176;BME280;52977;44.816;20.538;2023-05-25T08:55:05;99943.09;;;21.39;90.85
66176;BME280;52977;44.816;20.538;2023-05-25T08:57:54;99947.84;;;21.39;89.91
66176;BME280;52977;44.816;20.538;2023-05-25T09:00:31;99946.31;;;21.48;89.99
66176;BME280;52977;44.816;20.538;2023-05-25T09:03:14;99931.19;;;21.39;90.04
66176;BME280;52977;44.816;20.538;2023-05-25T09:05:41;99940.69;;;21.38;89.74
66176;BME280;52977;44.816;20.538;2023-05-25T09:08:07;99950.22;;;21.37;88.79
66176;BME280;52977;44.816;20.538;2023-05-25T09:10:35;99891.78;;;21.08;86.02
66176;BME280;52977;44.816;20.538;2023-05-25T09:13:02;99934.38;;;21.41;83.34
66176;BME280;52977;44.816;20.538;2023-05-25T09:15:32;99936.44;;;21.55;85.46
66176;BME280;52977;44.816;20.538;2023-05-25T09:17:58;99932.09;;;21.61;84.23
66176;BME280;52977;44.816;20.538;2023-05-25T09:20:25;99944.81;;;21.69;82.92
66176;BME280;52977;44.816;20.538;2023-05-25T09:22:57;99864.06;;;21.15;82.68
66176;BME280;52977;44.816;20.538;2023-05-25T09:25:24;99860.53;;;21.22;82.93
66176;BME280;52977;44.816;20.538;2023-05-25T09:27:52;99909.88;;;21.68;82.22
66176;BME280;52977;44.816;20.538;2023-05-25T09:30:19;99913.88;;;21.71;82.18
66176;BME280;52977;44.816;20.538;2023-05-25T09:32:44;99941.72;;;22.03;82.16
66176;BME280;52977;44.816;20.538;2023-05-25T09:35:14;99953.59;;;21.89;83.19
66176;BME280;52977;44.816;20.538;2023-05-25T09:37:41;99928.94;;;21.70;83.16
66176;BME280;52977;44.816;20.538;2023-05-25T09:40:07;99931.31;;;21.67;82.93
66176;BME280;52977;44.816;20.538;2023-05-25T09:42:34;99917.81;;;21.62;83.53
66176;BME280;52977;44.816;20.538;2023-05-25T09:45:00;99920.56;;;21.55;81.35
66176;BME280;52977;44.816;20.538;2023-05-25T09:47:27;99947.22;;;21.78;83.03
66176;BME280;52977;44.816;20.538;2023-05-25T09:49:53;99934.56;;;21.91;83.59
66176;BME280;52977;44.816;20.538;2023-05-25T09:52:20;99934.53;;;21.88;81.90
66176;BME280;52977;44.816;20.538;2023-05-25T09:54:48;99917.06;;;21.76;83.07
66176;BME280;52977;44.816;20.538;2023-05-25T09:57:14;99937.78;;;22.08;81.04
66176;BME280;52977;44.816;20.538;2023-05-25T09:59:42;99875.78;;;21.75;81.43
66176;BME280;52977;44.816;20.538;2023-05-25T10:02:08;99939.78;;;22.22;81.96
66176;BME280;52977;44.816;20.538;2023-05-25T10:04:33;99942.94;;;22.24;80.73
66176;BME280;52977;44.816;20.538;2023-05-25T10:07:03;99936.97;;;22.14;78.90
66176;BME280;52977;44.816;20.538;2023-05-25T10:09:30;99865.84;;;21.59;78.75
66176;BME280;52977;44.816;20.538;2023-05-25T10:11:56;99907.16;;;21.86;76.75
66176;BME280;52977;44.816;20.538;2023-05-25T10:14:28;99931.81;;;22.13;77.21
66176;BME280;52977;44.816;20.538;2023-05-25T10:16:56;99920.69;;;22.13;77.74
66176;BME280;52977;44.816;20.538;2023-05-25T10:19:35;99926.25;;;22.20;78.80
66176;BME280;52977;44.816;20.538;2023-05-25T10:22:15;99931.81;;;22.16;77.44
66176;BME280;52977;44.816;20.538;2023-05-25T10:24:53;99933.03;;;22.26;74.58
66176;BME280;52977;44.816;20.538;2023-05-25T10:27:23;99928.25;;;22.19;74.89
66176;BME280;52977;44.816;20.538;2023-05-25T10:29:50;99922.28;;;22.32;75.17
66176;BME280;52977;44.816;20.538;2023-05-25T10:32:17;99898.06;;;22.32;71.66
66176;BME280;52977;44.816;20.538;2023-05-25T10:34:44;99910.38;;;22.60;71.52
66176;BME280;52977;44.816;20.538;2023-05-25T10:37:11;99900.47;;;22.56;68.95
66176;BME280;52977;44.816;20.538;2023-05-25T10:39:40;99911.56;;;22.74;67.60
66176;BME280;52977;44.816;20.538;2023-05-25T10:42:08;99880.16;;;22.66;67.03
66176;BME280;52977;44.816;20.538;2023-05-25T10:44:33;99908.72;;;22.99;67.12
66176;BME280;52977;44.816;20.538;2023-05-25T10:46:59;99762.66;;;22.15;65.10
66176;BME280;52977;44.816;20.538;2023-05-25T10:49:33;99905.50;;;23.08;66.76
66176;BME280;52977;44.816;20.538;2023-05-25T10:52:00;99875.69;;;23.01;67.52
66176;BME280;52977;44.816;20.538;2023-05-25T10:54:29;99890.81;;;23.07;68.48
66176;BME280;52977;44.816;20.538;2023-05-25T10:57:12;99882.09;;;22.87;69.96
66176;BME280;52977;44.816;20.538;2023-05-25T10:59:40;99852.78;;;22.61;68.63
66176;BME280;52977;44.816;20.538;2023-05-25T11:02:09;99882.13;;;22.80;69.63
66176;BME280;52977;44.816;20.538;2023-05-25T11:04:35;99898.44;;;22.74;66.32
66176;BME280;52977;44.816;20.538;2023-05-25T11:09:29;99882.97;;;22.73;68.85
66176;BME280;52977;44.816;20.538;2023-05-25T11:17:12;99878.47;;;23.01;67.85
66176;BME280;52977;44.816;20.538;2023-05-25T11:19:47;99882.47;;;23.00;68.56
66176;BME280;52977;44.816;20.538;2023-05-25T11:22:18;99845.59;;;22.67;70.61
66176;BME280;52977;44.816;20.538;2023-05-25T11:24:51;99878.94;;;22.89;70.51
66176;BME280;52977;44.816;20.538;2023-05-25T11:27:26;99846.38;;;22.71;70.15
66176;BME280;52977;44.816;20.538;2023-05-25T11:29:53;99835.69;;;22.62;71.65
66176;BME280;52977;44.816;20.538;2023-05-25T11:32:19;99881.34;;;22.68;72.99
66176;BME280;52977;44.816;20.538;2023-05-25T11:34:50;99867.47;;;22.54;74.70
66176;BME280;52977;44.816;20.538;2023-05-25T11:37:18;99861.91;;;22.61;75.72
66176;BME280;52977;44.816;20.538;2023-05-25T11:39:49;99852.38;;;22.62;76.27
66176;BME280;52977;44.816;20.538;2023-05-25T11:42:23;99864.66;;;22.68;75.80
66176;BME280;52977;44.816;20.538;2023-05-25T11:44:50;99869.03;;;22.66;75.17
66176;BME280;52977;44.816;20.538;2023-05-25T11:47:21;99866.25;;;22.69;75.36
66176;BME280;52977;44.816;20.538;2023-05-25T11:49:49;99854.72;;;22.78;73.29
66176;BME280;52977;44.816;20.538;2023-05-25T11:52:16;99865.00;;;22.96;72.95
66176;BME280;52977;44.816;20.538;2023-05-25T11:54:43;99805.47;;;22.68;71.06
66176;BME280;52977;44.816;20.538;2023-05-25T11:59:52;99848.34;;;22.74;73.52
66176;BME280;52977;44.816;20.538;2023-05-25T12:02:19;99821.81;;;22.41;77.49
66176;BME280;52977;44.816;20.538;2023-05-25T12:04:59;99851.22;;;22.42;82.62
66176;BME280;52977;44.816;20.538;2023-05-25T12:07:29;99836.13;;;22.07;85.43
66176;BME280;52977;44.816;20.538;2023-05-25T12:10:08;99848.81;;;22.04;86.58
66176;BME280;52977;44.816;20.538;2023-05-25T12:12:45;99817.44;;;21.75;85.88
66176;BME280;52977;44.816;20.538;2023-05-25T12:15:14;99788.88;;;21.63;87.36
66176;BME280;52977;44.816;20.538;2023-05-25T12:17:42;99825.78;;;21.93;88.01
66176;BME280;52977;44.816;20.538;2023-05-25T12:20:10;99809.13;;;21.82;85.72
66176;BME280;52977;44.816;20.538;2023-05-25T12:22:37;99821.81;;;22.05;83.57
66176;BME280;52977;44.816;20.538;2023-05-25T12:25:07;99842.44;;;22.25;83.27
66176;BME280;52977;44.816;20.538;2023-05-25T12:27:35;99832.53;;;22.28;80.47
66176;BME280;52977;44.816;20.538;2023-05-25T12:30:03;99830.53;;;22.32;80.46
66176;BME280;52977;44.816;20.538;2023-05-25T12:32:29;99848.06;;;22.40;79.95
66176;BME280;52977;44.816;20.538;2023-05-25T12:35:03;99843.25;;;22.44;77.18
66176;BME280;52977;44.816;20.538;2023-05-25T12:37:29;99840.47;;;22.51;78.76
66176;BME280;52977;44.816;20.538;2023-05-25T12:39:55;99836.09;;;22.61;79.31
66176;BME280;52977;44.816;20.538;2023-05-25T12:42:22;99820.97;;;22.62;80.51
66176;BME280;52977;44.816;20.538;2023-05-25T12:44:54;99847.16;;;22.86;81.11
66176;BME280;52977;44.816;20.538;2023-05-25T12:47:22;99832.06;;;22.76;80.51
66176;BME280;52977;44.816;20.538;2023-05-25T12:49:49;99842.44;;;22.61;84.73
66176;BME280;52977;44.816;20.538;2023-05-25T12:52:36;99804.31;;;22.33;83.99
66176;BME280;52977;44.816;20.538;2023-05-25T12:57:46;99790.44;;;22.11;88.77
66176;BME280;52977;44.816;20.538;2023-05-25T13:00:30;99860.72;;;22.48;87.86
66176;BME280;52977;44.816;20.538;2023-05-25T13:02:57;99848.03;;;22.47;90.63
66176;BME280;52977;44.816;20.538;2023-05-25T13:05:28;99844.84;;;22.27;91.48